Broen, Sweden

10:04 AM CEST on August 28, 2015 (GMT +0200)
Eftra | | Change Station
CLOSE
Current Station
Personal Weather Station
Location: Falkenberg, Halland
Elevation: 146 ft
Nearby Weather Stations

Elev 146 ft 56.86 °N, 12.65 °E | Updated 3 seconds ago

Scattered Clouds
Scattered Clouds
64.6 °F
Feels Like 64.6 °F
N
10.7
Wind Variable Wind from WSW
Gusts 15.4 mph

Today
High -- | Low -- °F
--% Chance of Precip.
Yesterday
High -- | Low -- °F
Precip. -- in
6:02 AM 8:17 PM
Waxing Gibbous, 97% visible
Pressure 29.83 in
Visibility 6.2 miles
Clouds Scattered Clouds 2000 ft
Dew Point 56 °F
Humidity 74%
Rainfall 0.04 in
Snow Depth Not available.
UV 3 out of 12
Pollen Not available.
Air Quality Not available.
Flu Activity Not available.
METAR ESMT 280750Z 27012KT 9999 SCT020 17/12 Q1010
Pressure 29.83 in
Visibility 6.2 miles
Clouds Scattered Clouds 2000 ft
Dew Point 56 °F
Humidity 74%
Rainfall 0.04 in
Snow Depth Not available.
UV 3 out of 12
Pollen Not available.
Air Quality Not available.
Flu Activity Not available.
METAR ESMT 280750Z 27012KT 9999 SCT020 17/12 Q1010

10-Day Weather Forecast

×

Almanac

Astronomy

Aug. 28, 2015 Rise Set
Actual Time
Civil Twilight
Nautical Twilight
Astronomical Twilight
Moon
Length of Visible Light
Length of Day
Tomorrow will be .
, % of the Moon is Illuminated

Today's Extremes

Country Highs Country Lows

Community

WunderPhotos

Upload Photos

1,850,348 photos uploaded!

WunderBlogs® & News

Nearby

Air Quality

  Air Quality AQ Index Pollutant
Not available.

Snow Depth

Station Depth Elevation

Earthquake Activity

City Distance Mag. Time & Date
Minimum magnitude displayed is 2.5.

Coastal Water Temperatures

Place Temperature

Stations

Nearby Weather Stations

Station Location Temp. Windchill Dew Point Humidity Wind Precip. Elev Updated Type